createdAt,value
2022-11-29T00:00:09.040Z,53.5
2022-11-29T00:01:10.942Z,53.1
2022-11-29T00:02:12.213Z,52.8
2022-11-29T00:03:14.258Z,52.7
2022-11-29T00:04:16.119Z,52.8
2022-11-29T00:05:18.030Z,53
2022-11-29T00:06:20.038Z,53.1
2022-11-29T00:07:22.117Z,53.2
2022-11-29T00:08:24.018Z,53.1
2022-11-29T00:09:25.999Z,53.1
2022-11-29T00:10:28.028Z,53.6
2022-11-29T00:11:30.159Z,54.1
2022-11-29T00:12:32.099Z,53.5
2022-11-29T00:13:33.878Z,53.6
2022-11-29T00:14:34.899Z,53.3
2022-11-29T00:15:35.899Z,53
2022-11-29T00:16:37.013Z,53.1
2022-11-29T00:17:39.122Z,53
2022-11-29T00:18:41.086Z,53.2
2022-11-29T00:19:43.078Z,53.3
2022-11-29T00:20:45.139Z,53.2
2022-11-29T00:21:46.841Z,53.1
2022-11-29T00:22:47.899Z,53.1
2022-11-29T00:23:48.980Z,52.8
2022-11-29T00:24:49.839Z,52.6
2022-11-29T00:25:50.878Z,52.6
2022-11-29T00:26:51.922Z,52.6
2022-11-29T00:27:52.919Z,52.5
2022-11-29T00:28:53.899Z,52.4
2022-11-29T00:29:54.880Z,52.4
2022-11-29T00:30:55.932Z,52.6
2022-11-29T00:31:56.879Z,52.5
2022-11-29T00:32:57.948Z,52.3
2022-11-29T00:33:59.119Z,52.2
2022-11-29T00:35:04.052Z,51.8
2022-11-29T00:36:03.160Z,51.5
2022-11-29T00:37:05.112Z,51.6
2022-11-29T00:38:07.102Z,51.8
2022-11-29T00:39:08.998Z,52.1
2022-11-29T00:40:10.922Z,52.5
2022-11-29T00:41:11.961Z,52.6
2022-11-29T00:42:12.921Z,52.6
2022-11-29T00:43:14.040Z,52.5
2022-11-29T00:44:20.056Z,52.6
2022-11-29T00:45:17.919Z,52.6
2022-11-29T00:46:19.087Z,52.7
2022-11-29T00:47:20.879Z,52.9
2022-11-29T00:48:21.936Z,53.1
2022-11-29T00:49:22.918Z,52.8
2022-11-29T00:50:23.887Z,52.8
2022-11-29T00:51:24.898Z,53
2022-11-29T00:52:25.959Z,52.9
2022-11-29T00:53:26.890Z,52.6
2022-11-29T00:54:27.919Z,52.4
2022-11-29T00:55:29.080Z,52.4
2022-11-29T00:56:31.058Z,52.4
2022-11-29T00:57:33.061Z,52.5
2022-11-29T00:58:34.998Z,52.5
2022-11-29T00:59:37.101Z,52.7
2022-11-29T01:00:39.169Z,52.6
2022-11-29T01:01:41.043Z,52.3
2022-11-29T01:02:42.263Z,52.2
2022-11-29T01:03:44.063Z,52.1
2022-11-29T01:04:46.246Z,51
2022-11-29T01:05:48.049Z,52.2
2022-11-29T01:06:49.959Z,52.5
2022-11-29T01:07:51.007Z,52.8
2022-11-29T01:08:51.838Z,52.6
2022-11-29T01:09:52.919Z,52.5
2022-11-29T01:10:53.940Z,52.1
2022-11-29T01:11:54.901Z,51.9
2022-11-29T01:12:55.978Z,51.9
2022-11-29T01:13:56.981Z,52
2022-11-29T01:14:57.900Z,52
2022-11-29T01:15:59.059Z,52.1
2022-11-29T01:17:01.134Z,52.4
2022-11-29T01:18:03.049Z,52.4
2022-11-29T01:19:05.123Z,52.6
2022-11-29T01:20:07.019Z,52.8
2022-11-29T01:21:08.919Z,52.6
2022-11-29T01:22:09.959Z,52.2
2022-11-29T01:23:11.000Z,51.9
2022-11-29T01:24:11.979Z,51.7
2022-11-29T01:25:13.019Z,51.6
2022-11-29T01:26:15.081Z,51.6
2022-11-29T01:27:16.898Z,51.7
2022-11-29T01:28:17.900Z,51.8
2022-11-29T01:29:18.959Z,52
2022-11-29T01:30:20.018Z,52
2022-11-29T01:31:21.959Z,52
2022-11-29T01:32:23.012Z,52.2
2022-11-29T01:33:25.227Z,52.1
2022-11-29T01:34:26.963Z,52.3
2022-11-29T01:35:27.919Z,52.7
2022-11-29T01:36:29.080Z,52.9
2022-11-29T01:37:31.088Z,52.9
2022-11-29T01:38:33.059Z,52.9
2022-11-29T01:39:35.079Z,52.9
2022-11-29T01:40:37.119Z,53
2022-11-29T01:41:39.147Z,53
2022-11-29T01:42:40.979Z,52.5
2022-11-29T01:43:41.920Z,52.2
2022-11-29T01:44:43.298Z,52.2
2022-11-29T01:45:44.033Z,52.1
2022-11-29T01:46:46.119Z,52.6
2022-11-29T01:47:48.099Z,52.8
2022-11-29T01:48:49.879Z,52.7
2022-11-29T01:49:51.045Z,52.6
2022-11-29T01:50:51.899Z,52.4
2022-11-29T01:51:52.981Z,52.4
2022-11-29T01:52:53.939Z,52.3
2022-11-29T01:53:54.928Z,51.9
2022-11-29T01:54:55.961Z,51.7
2022-11-29T01:55:57.085Z,51.5
2022-11-29T01:56:58.983Z,51.2
2022-11-29T01:58:01.199Z,51.4
2022-11-29T01:59:02.986Z,51.5
2022-11-29T02:00:05.298Z,51.5
2022-11-29T02:01:06.998Z,51.7
2022-11-29T02:02:08.057Z,51.9
2022-11-29T02:03:08.927Z,52.1
2022-11-29T02:06:57.043Z,53.2
2022-11-29T02:07:58.034Z,53.5
2022-11-29T02:08:58.960Z,53.8
2022-11-29T02:10:01.418Z,53.9
2022-11-29T02:11:03.139Z,54
2022-11-29T02:12:05.122Z,53.3
2022-11-29T02:13:07.060Z,53.2
2022-11-29T02:14:09.087Z,52.9
2022-11-29T02:15:11.119Z,52.6
2022-11-29T02:16:13.184Z,52.4
2022-11-29T02:17:15.120Z,52.2
2022-11-29T02:18:17.060Z,52.4
2022-11-29T02:19:18.949Z,52.3
2022-11-29T02:20:20.020Z,52.2
2022-11-29T02:21:21.019Z,52.1
2022-11-29T02:22:21.942Z,51.5
2022-11-29T02:23:22.920Z,51.9
2022-11-29T02:24:23.908Z,52
2022-11-29T02:25:24.980Z,51.7
2022-11-29T02:26:25.981Z,51.5
2022-11-29T02:27:26.999Z,51.3
2022-11-29T02:28:27.919Z,51.5
2022-11-29T02:29:29.000Z,51.8
2022-11-29T02:30:30.128Z,52.2
2022-11-29T02:31:32.157Z,52.5
2022-11-29T02:32:34.118Z,52.6
2022-11-29T02:33:36.259Z,52.6
2022-11-29T02:34:37.974Z,52.7
2022-11-29T02:35:39.180Z,52.8
2022-11-29T02:36:40.999Z,53
2022-11-29T02:37:41.944Z,53.1
2022-11-29T02:38:43.095Z,53
2022-11-29T02:39:45.179Z,53
2022-11-29T02:40:47.119Z,53
2022-11-29T02:41:49.041Z,52.8
2022-11-29T02:42:56.357Z,52.7
2022-11-29T02:43:53.181Z,52.8
2022-11-29T02:44:54.999Z,53.2
2022-11-29T02:45:56.035Z,53.7
2022-11-29T02:46:56.979Z,53.9
2022-11-29T02:47:59.112Z,54.2
2022-11-29T02:49:01.339Z,54.6
2022-11-29T02:50:03.233Z,55
2022-11-29T02:51:05.192Z,55.1
2022-11-29T02:52:07.060Z,55.1
2022-11-29T02:53:09.008Z,54.8
2022-11-29T02:54:10.022Z,54.5
2022-11-29T02:55:11.000Z,53.9
2022-11-29T02:56:12.011Z,53.6
2022-11-29T02:57:12.960Z,53.5
2022-11-29T02:58:13.952Z,53.2
2022-11-29T02:59:15.099Z,53.1
2022-11-29T03:00:17.120Z,53
2022-11-29T03:01:19.276Z,52.7
2022-11-29T03:02:21.007Z,52.3
2022-11-29T03:03:21.942Z,52.2
2022-11-29T03:04:23.024Z,52
2022-11-29T03:05:24.039Z,51.7
2022-11-29T03:06:25.022Z,51.5
2022-11-29T03:07:26.007Z,51.4
2022-11-29T03:08:27.065Z,51.4
2022-11-29T03:09:27.999Z,51.4
2022-11-29T03:10:28.962Z,51.3
2022-11-29T03:11:30.220Z,51.7
2022-11-29T03:12:32.179Z,51.7
2022-11-29T03:13:34.146Z,52
2022-11-29T03:14:36.280Z,52.2
2022-11-29T03:15:38.218Z,52.5
2022-11-29T03:16:43.195Z,52.5
2022-11-29T03:17:41.969Z,52.6
2022-11-29T03:18:43.019Z,52.8
2022-11-29T03:19:44.002Z,52.8
2022-11-29T03:20:46.139Z,52.9
2022-11-29T03:21:48.139Z,52.5
2022-11-29T03:22:50.280Z,53
2022-11-29T03:23:52.147Z,52.9
2022-11-29T03:24:53.998Z,52.9
2022-11-29T03:25:55.000Z,52.9
2022-11-29T03:26:56.039Z,53.2
2022-11-29T03:27:57.020Z,53.7
2022-11-29T03:28:58.020Z,53.8
2022-11-29T03:29:58.960Z,53.9
2022-11-29T03:31:00.291Z,53.6
2022-11-29T03:32:02.079Z,53.4
2022-11-29T03:33:04.220Z,53.6
2022-11-29T03:34:06.599Z,53.6
2022-11-29T03:35:08.110Z,53.1
2022-11-29T03:36:10.219Z,53.3
2022-11-29T03:37:11.959Z,53.2
2022-11-29T03:38:13.068Z,53.2
2022-11-29T03:39:14.047Z,53.4
2022-11-29T03:40:15.278Z,53.6
2022-11-29T03:41:17.060Z,53.4
2022-11-29T03:42:17.975Z,53.2
2022-11-29T03:43:19.019Z,53.1
2022-11-29T03:44:20.040Z,53
2022-11-29T03:45:21.019Z,53.1
2022-11-29T03:46:22.110Z,53.4
2022-11-29T03:47:23.058Z,53.4
2022-11-29T03:48:24.057Z,53.5
2022-11-29T03:49:25.039Z,53.6
2022-11-29T03:50:26.019Z,53.9
2022-11-29T03:51:27.039Z,53.7
2022-11-29T03:52:28.080Z,53.7
2022-11-29T03:53:30.090Z,53.5
2022-11-29T03:54:32.163Z,53.7
2022-11-29T03:55:34.159Z,53.6
2022-11-29T03:56:36.120Z,53.7
2022-11-29T03:57:37.945Z,53.9
2022-11-29T03:58:39.098Z,54.1
2022-11-29T03:59:41.158Z,53.9
2022-11-29T04:00:42.967Z,53.7
2022-11-29T04:01:44.124Z,53.7
2022-11-29T04:02:46.180Z,53.7
2022-11-29T04:03:48.159Z,53.8
2022-11-29T04:04:50.120Z,53.9
2022-11-29T04:05:52.179Z,53.5
2022-11-29T04:06:54.080Z,53.7
2022-11-29T04:07:56.361Z,53.3
2022-11-29T04:08:58.090Z,53.5
2022-11-29T04:10:00.170Z,53.7
2022-11-29T04:11:02.220Z,53.9
2022-11-29T04:12:04.219Z,53.8
2022-11-29T04:13:06.621Z,54.2
2022-11-29T04:14:07.979Z,54
2022-11-29T04:15:12.816Z,53.7
2022-11-29T04:16:11.272Z,53.4
2022-11-29T04:17:13.268Z,53.2
2022-11-29T04:18:15.241Z,53
2022-11-29T04:19:17.158Z,53
2022-11-29T04:20:19.025Z,52.8
2022-11-29T04:21:19.979Z,52.6
2022-11-29T04:22:20.999Z,52.4
2022-11-29T04:23:21.937Z,52.3
2022-11-29T04:24:23.478Z,52.3
2022-11-29T04:25:25.065Z,52.4
2022-11-29T04:26:29.706Z,52.6
2022-11-29T04:27:27.987Z,52.7
2022-11-29T04:28:28.999Z,52.7
2022-11-29T04:29:30.138Z,52.4
2022-11-29T04:30:32.239Z,52.4
2022-11-29T04:31:34.260Z,52.5
2022-11-29T04:32:36.100Z,52.7
2022-11-29T04:33:38.198Z,52.8
2022-11-29T04:34:40.059Z,52.9
2022-11-29T04:35:41.066Z,53.1
2022-11-29T04:36:42.039Z,53.2
2022-11-29T04:37:43.040Z,52.9
2022-11-29T04:38:44.027Z,53
2022-11-29T04:39:45.079Z,52.9
2022-11-29T04:40:47.224Z,52.2
2022-11-29T04:41:49.299Z,52.4
2022-11-29T04:42:51.019Z,52.7
2022-11-29T04:43:52.039Z,52.9
2022-11-29T04:44:53.158Z,53.1
2022-11-29T04:45:55.079Z,53.1
2022-11-29T04:46:57.058Z,53.1
2022-11-29T04:47:58.078Z,53.2
2022-11-29T04:48:59.007Z,52.6
2022-11-29T04:50:00.178Z,52.5
2022-11-29T04:51:02.299Z,52.1
2022-11-29T04:52:04.199Z,52.2
2022-11-29T04:53:06.619Z,52.6
2022-11-29T04:54:08.137Z,52.8
2022-11-29T04:55:10.060Z,52.9
2022-11-29T04:56:11.066Z,52.8
2022-11-29T04:57:12.059Z,52.9
2022-11-29T04:58:13.000Z,53.1
2022-11-29T04:59:14.002Z,52.9
2022-11-29T05:00:15.101Z,52.5
2022-11-29T05:01:17.214Z,52.2
2022-11-29T05:02:19.323Z,52.2
2022-11-29T05:03:21.179Z,52
2022-11-29T05:04:23.066Z,51.7
2022-11-29T05:05:24.062Z,51.3
2022-11-29T05:06:25.002Z,51.8
2022-11-29T05:07:26.055Z,52.1
2022-11-29T05:08:27.019Z,52
2022-11-29T05:09:28.011Z,52.3
2022-11-29T05:10:29.085Z,52.5
2022-11-29T05:11:30.106Z,52.3
2022-11-29T05:12:32.239Z,52.3
2022-11-29T05:13:34.279Z,52.4
2022-11-29T05:14:36.160Z,52.2
2022-11-29T05:15:38.252Z,52.4
2022-11-29T05:16:40.206Z,52
2022-11-29T05:17:42.039Z,52.3
2022-11-29T05:18:43.047Z,52.5
2022-11-29T05:19:44.059Z,52.7
2022-11-29T05:20:45.078Z,52.4
2022-11-29T05:21:46.163Z,52.4
2022-11-29T05:22:48.040Z,52.2
2022-11-29T05:23:49.018Z,52.4
2022-11-29T05:24:50.139Z,52.8
2022-11-29T05:25:51.998Z,53
2022-11-29T05:26:53.067Z,53.2
2022-11-29T05:27:54.056Z,53.2
2022-11-29T05:28:55.018Z,53.1
2022-11-29T05:29:56.123Z,53.1
2022-11-29T05:30:58.176Z,52.9
2022-11-29T05:31:59.000Z,52.6
2022-11-29T05:33:00.082Z,52.3
2022-11-29T05:34:02.260Z,52
2022-11-29T05:35:04.240Z,52.2
2022-11-29T05:36:06.719Z,52.2
2022-11-29T05:37:08.139Z,52.7
2022-11-29T05:38:10.261Z,53.1
2022-11-29T05:39:12.318Z,53
2022-11-29T05:40:14.058Z,52.9
2022-11-29T05:41:15.229Z,52.9
2022-11-29T05:42:17.265Z,52.8
2022-11-29T05:43:19.298Z,52.7
2022-11-29T05:44:21.218Z,52.6
2022-11-29T05:45:23.218Z,52.4
2022-11-29T05:46:25.225Z,52.5
2022-11-29T05:47:31.308Z,52.4
2022-11-29T05:48:28.059Z,52.2
2022-11-29T05:49:29.078Z,52.4
2022-11-29T05:50:30.058Z,52.4
2022-11-29T05:51:31.664Z,52.1
2022-11-29T05:52:33.150Z,51.6
2022-11-29T05:53:35.278Z,51.2
2022-11-29T05:54:37.238Z,51
2022-11-29T05:55:39.219Z,51.3
2022-11-29T05:56:42.064Z,51.8
2022-11-29T05:57:43.066Z,52.1
2022-11-29T05:58:45.699Z,52.3
2022-11-29T05:59:47.079Z,52.2
2022-11-29T06:00:48.039Z,51.9
2022-11-29T06:01:49.080Z,51.3
2022-11-29T06:02:50.173Z,51.2
2022-11-29T06:03:52.278Z,51.2
2022-11-29T06:04:54.256Z,51.5
2022-11-29T06:05:56.278Z,51.7
2022-11-29T06:06:58.258Z,52
2022-11-29T06:08:00.270Z,52
2022-11-29T06:09:02.090Z,52.1
2022-11-29T06:10:03.760Z,51.8
2022-11-29T06:11:05.319Z,51.9
2022-11-29T06:12:07.499Z,52.2
2022-11-29T06:13:09.307Z,52
2022-11-29T06:14:11.228Z,51.8
2022-11-29T06:15:13.266Z,51.8
2022-11-29T06:16:15.385Z,51.7
2022-11-29T06:17:17.871Z,51.8
2022-11-29T06:18:19.215Z,51.9
2022-11-29T06:19:21.122Z,52.4
2022-11-29T06:20:22.259Z,52.7
2022-11-29T06:21:24.199Z,52.5
2022-11-29T06:22:26.249Z,52.5
2022-11-29T06:23:29.200Z,52.4
2022-11-29T06:24:31.026Z,52.1
2022-11-29T06:25:32.278Z,52.1
2022-11-29T06:26:34.262Z,52.3
2022-11-29T06:27:36.339Z,52.5
2022-11-29T06:28:38.255Z,52.7
2022-11-29T06:29:40.299Z,52.8
2022-11-29T06:30:42.268Z,52.9
2022-11-29T06:31:44.194Z,52.9
2022-11-29T06:32:45.060Z,52.7
2022-11-29T06:33:46.604Z,52.2
2022-11-29T06:34:49.050Z,51.8
2022-11-29T06:35:50.782Z,51.4
2022-11-29T06:36:52.040Z,51.5
2022-11-29T06:37:53.059Z,52
2022-11-29T06:38:54.161Z,52
2022-11-29T06:39:56.227Z,52.5
2022-11-29T06:41:01.752Z,52.5
2022-11-29T06:41:59.920Z,52.3
2022-11-29T06:43:01.386Z,52.2
2022-11-29T06:44:03.282Z,52.1
2022-11-29T06:45:05.243Z,51.8
2022-11-29T06:46:07.339Z,51.3
2022-11-29T06:47:09.239Z,51.5
2022-11-29T06:48:11.117Z,51.8
2022-11-29T06:49:12.075Z,51.9
2022-11-29T06:50:13.240Z,52.3
2022-11-29T06:51:15.338Z,52.6
2022-11-29T06:52:17.315Z,52.3
2022-11-29T06:53:19.198Z,52.4
2022-11-29T06:54:21.259Z,52.5
2022-11-29T06:55:23.320Z,52.4
2022-11-29T06:56:25.291Z,52.7
2022-11-29T06:57:27.118Z,53
2022-11-29T06:58:31.529Z,52.9
2022-11-29T06:59:29.202Z,52.8
2022-11-29T07:00:31.453Z,52.6
2022-11-29T07:01:33.366Z,52.4
2022-11-29T07:02:35.322Z,52.2
2022-11-29T07:03:37.128Z,51.3
2022-11-29T07:04:42.694Z,51.2
2022-11-29T07:05:43.139Z,51
2022-11-29T07:06:44.119Z,50.9
2022-11-29T07:07:45.162Z,50.7
2022-11-29T07:08:46.158Z,50.6
2022-11-29T07:09:47.120Z,50.5
2022-11-29T07:10:48.300Z,50.4
2022-11-29T07:11:50.127Z,50.2
2022-11-29T07:12:51.098Z,50.1
2022-11-29T07:13:52.116Z,49.9
2022-11-29T07:14:53.226Z,50
2022-11-29T07:15:55.337Z,50
2022-11-29T07:16:57.675Z,50.1
2022-11-29T07:17:58.129Z,50.6
2022-11-29T07:18:59.129Z,51
2022-11-29T07:20:00.462Z,51.1
2022-11-29T07:21:02.409Z,50.9
2022-11-29T07:22:04.398Z,50.5
2022-11-29T07:23:06.321Z,50.3
2022-11-29T07:24:08.541Z,50
2022-11-29T07:25:10.168Z,49.8
2022-11-29T07:26:12.194Z,49.7
2022-11-29T07:27:13.200Z,49.7
2022-11-29T07:28:15.179Z,49.7
2022-11-29T07:29:17.362Z,49.7
2022-11-29T07:30:19.884Z,49.9
2022-11-29T07:31:21.354Z,50
2022-11-29T07:32:23.162Z,49.9
2022-11-29T07:33:24.325Z,49.7
2022-11-29T07:34:26.140Z,49.8
2022-11-29T07:35:27.027Z,49.9
2022-11-29T07:36:28.079Z,50.3
2022-11-29T07:37:29.208Z,50.7
2022-11-29T07:38:31.119Z,50.8
2022-11-29T07:39:32.308Z,50.4
2022-11-29T07:40:37.497Z,50.3
2022-11-29T07:41:36.238Z,50.4
2022-11-29T07:42:38.320Z,50.5
2022-11-29T07:43:40.328Z,50.6
2022-11-29T07:44:42.103Z,50.3
2022-11-29T07:45:43.108Z,50.6
2022-11-29T07:46:44.210Z,50.8
2022-11-29T07:47:45.350Z,51.1
2022-11-29T07:48:48.323Z,51.3
2022-11-29T07:49:50.959Z,51.4
2022-11-29T07:50:52.101Z,50.7
2022-11-29T07:51:53.230Z,50.9
2022-11-29T07:52:55.204Z,50.8
2022-11-29T07:53:57.229Z,50.6
2022-11-29T07:54:59.129Z,50.1
2022-11-29T07:56:00.505Z,49.9
2022-11-29T07:57:02.220Z,49.9
2022-11-29T07:58:04.379Z,49.9
2022-11-29T07:59:06.350Z,49.6
2022-11-29T08:00:08.297Z,49.9
2022-11-29T08:01:10.457Z,49.7
2022-11-29T08:02:12.288Z,49.1
2022-11-29T08:03:13.339Z,49
2022-11-29T08:04:15.370Z,48.9
2022-11-29T08:05:17.459Z,49.1
2022-11-29T08:06:19.602Z,49.4
2022-11-29T08:07:21.945Z,49.5
2022-11-29T08:08:23.165Z,49.2
2022-11-29T08:09:24.161Z,48.7
2022-11-29T08:10:25.202Z,48
2022-11-29T08:11:26.139Z,47.9
2022-11-29T08:12:27.129Z,47.9
2022-11-29T08:13:28.140Z,48.3
2022-11-29T08:14:29.197Z,48.1
2022-11-29T08:15:31.221Z,48
2022-11-29T08:16:33.137Z,47.5
2022-11-29T08:17:34.199Z,47.5
2022-11-29T08:18:36.220Z,47.7
2022-11-29T08:19:38.402Z,47.9
2022-11-29T08:20:40.853Z,47.8
2022-11-29T08:21:42.320Z,47.8
2022-11-29T08:22:44.309Z,48.3
2022-11-29T08:23:46.522Z,48.1
2022-11-29T08:24:48.467Z,48.1
2022-11-29T08:25:50.359Z,48.2
2022-11-29T08:26:52.160Z,48.6
2022-11-29T08:27:53.181Z,48.9
2022-11-29T08:28:54.196Z,48.9
2022-11-29T08:29:55.601Z,49.1
2022-11-29T08:30:57.422Z,49.1
2022-11-29T08:31:59.568Z,49.2
2022-11-29T08:33:01.640Z,49.3
2022-11-29T08:34:03.599Z,49.5
2022-11-29T08:35:05.381Z,49.4
2022-11-29T08:36:07.999Z,49.4
2022-11-29T08:37:09.121Z,49.5
2022-11-29T08:38:10.864Z,49.7
2022-11-29T08:39:13.059Z,49.8
2022-11-29T08:40:14.142Z,49.9
2022-11-29T08:41:15.280Z,50.3
2022-11-29T08:42:17.180Z,50.6
2022-11-29T08:43:18.306Z,50.7
2022-11-29T08:44:25.380Z,50.7
2022-11-29T08:45:27.282Z,50.5
2022-11-29T08:46:29.241Z,50.6
2022-11-29T08:47:31.288Z,50.6
2022-11-29T08:48:33.052Z,50.6
2022-11-29T08:49:34.232Z,50.4
2022-11-29T08:50:36.255Z,50.2
2022-11-29T08:51:38.228Z,49.7
2022-11-29T08:52:40.223Z,49.3
2022-11-29T08:53:42.284Z,48.9
2022-11-29T08:54:44.556Z,49
2022-11-29T08:55:45.158Z,49.3
2022-11-29T08:57:47.124Z,49.2
2022-11-29T08:58:48.142Z,49.1
2022-11-29T08:59:49.147Z,48.9
2022-11-29T09:00:50.322Z,49
2022-11-29T09:01:52.774Z,49
2022-11-29T09:02:54.725Z,49
2022-11-29T09:03:56.225Z,48.9
2022-11-29T09:04:58.130Z,48.5
2022-11-29T09:05:59.722Z,48.6
2022-11-29T09:07:01.325Z,49.1
2022-11-29T09:08:03.198Z,49.7
2022-11-29T09:09:05.439Z,49.5
2022-11-29T09:10:07.365Z,49.6
2022-11-29T09:11:09.458Z,49.5
2022-11-29T09:12:11.285Z,49.6
2022-11-29T09:13:13.079Z,49.8
2022-11-29T09:14:14.147Z,49.8
2022-11-29T09:15:15.221Z,49.7
2022-11-29T09:16:16.247Z,49.8
2022-11-29T09:17:18.261Z,49.5
2022-11-29T09:18:20.153Z,49.5
2022-11-29T09:19:21.163Z,49.2
2022-11-29T09:20:22.224Z,48.6
2022-11-29T09:21:23.448Z,48.6
2022-11-29T09:22:25.224Z,48.4
2022-11-29T09:23:27.167Z,48.4
2022-11-29T09:24:28.182Z,48.5
2022-11-29T09:25:29.220Z,48.2
2022-11-29T09:26:30.587Z,47.9
2022-11-29T09:27:32.780Z,47.7
2022-11-29T09:28:34.120Z,47.8
2022-11-29T09:29:35.209Z,47.6
2022-11-29T09:30:36.115Z,47.5
2022-11-29T09:31:37.363Z,47.5
2022-11-29T09:32:39.270Z,47.2
2022-11-29T09:33:41.348Z,47.3
2022-11-29T09:34:43.697Z,47.6
2022-11-29T09:35:45.180Z,47.8
2022-11-29T09:36:46.160Z,47.8
2022-11-29T09:37:47.361Z,47.9
2022-11-29T09:38:50.100Z,48
2022-11-29T09:39:51.323Z,48
2022-11-29T09:40:53.880Z,47.8
2022-11-29T09:41:55.459Z,47.7
2022-11-29T09:42:57.100Z,47.2
2022-11-29T09:43:58.399Z,47.1
2022-11-29T09:45:00.303Z,46.7
2022-11-29T09:46:02.430Z,46.7
2022-11-29T09:47:04.380Z,46.5
2022-11-29T09:48:06.400Z,47.1
2022-11-29T09:49:08.526Z,47.8
2022-11-29T09:50:10.240Z,47.9
2022-11-29T09:51:11.256Z,47.8
2022-11-29T09:52:13.162Z,47.7
2022-11-29T09:53:14.200Z,47.3
2022-11-29T09:54:15.240Z,47.2
2022-11-29T09:55:16.272Z,46.8
2022-11-29T09:56:18.339Z,47.3
2022-11-29T09:57:20.461Z,47.7
2022-11-29T09:58:22.499Z,47.8
2022-11-29T09:59:24.166Z,47.9
2022-11-29T10:00:25.299Z,47.7
2022-11-29T10:01:27.462Z,47.4
2022-11-29T10:02:29.264Z,47.2
2022-11-29T10:03:30.221Z,47.1
2022-11-29T10:04:31.322Z,46.9
2022-11-29T10:05:33.228Z,46.8
2022-11-29T10:06:34.144Z,46.8
2022-11-29T10:07:35.340Z,46.9
2022-11-29T10:08:37.262Z,47
2022-11-29T10:09:39.320Z,47.8
2022-11-29T10:10:41.339Z,47.8
2022-11-29T10:11:43.339Z,47.4
2022-11-29T10:12:45.269Z,47.3
2022-11-29T10:13:47.680Z,47.2
2022-11-29T10:14:50.259Z,47.3
2022-11-29T10:15:52.459Z,47
2022-11-29T10:16:54.206Z,46.8
2022-11-29T10:17:55.240Z,46.6
2022-11-29T10:18:56.399Z,46.6
2022-11-29T10:19:58.255Z,46.6
2022-11-29T10:20:59.248Z,46.4
2022-11-29T10:22:00.247Z,47.1
2022-11-29T10:23:01.228Z,47.6
2022-11-29T10:24:03.840Z,47.9
2022-11-29T10:25:05.301Z,47.3
2022-11-29T10:26:07.210Z,47.2
2022-11-29T10:27:08.220Z,47
2022-11-29T10:28:09.216Z,46.9
2022-11-29T10:29:10.699Z,46.9
2022-11-29T10:30:12.359Z,46.9
2022-11-29T10:31:14.268Z,46.7
2022-11-29T10:32:15.319Z,46.8
2022-11-29T10:33:17.340Z,46.5
2022-11-29T10:34:19.220Z,45.9
2022-11-29T10:35:20.247Z,45.4
2022-11-29T10:36:21.320Z,45.8
2022-11-29T10:37:23.320Z,45.9
2022-11-29T10:38:32.641Z,45.9
2022-11-29T10:39:27.270Z,45.9
2022-11-29T10:40:29.239Z,45.7
2022-11-29T10:41:30.220Z,45.8
2022-11-29T10:42:31.221Z,46
2022-11-29T10:43:32.300Z,46.2
2022-11-29T10:44:34.398Z,46.5
2022-11-29T10:45:36.432Z,46.5
2022-11-29T10:46:38.481Z,46.5
2022-11-29T10:47:40.259Z,46.6
2022-11-29T10:48:41.279Z,46.5
2022-11-29T10:49:43.227Z,46.6
2022-11-29T10:50:44.264Z,46.5
2022-11-29T10:51:45.200Z,46.6
2022-11-29T10:52:46.326Z,46.6
2022-11-29T10:53:48.441Z,46.9
2022-11-29T10:54:50.259Z,47.2
2022-11-29T10:55:51.244Z,47.2
2022-11-29T10:56:52.177Z,47.9
2022-11-29T10:57:53.262Z,48.2
2022-11-29T10:58:54.559Z,48.7
2022-11-29T10:59:56.609Z,49
2022-11-29T11:00:58.475Z,48.5
2022-11-29T11:02:00.265Z,48.2
2022-11-29T11:03:01.200Z,48
2022-11-29T11:04:02.519Z,47.9
2022-11-29T11:05:04.220Z,48.1
2022-11-29T11:06:05.350Z,48.2
2022-11-29T11:07:07.297Z,48.2
2022-11-29T11:08:09.273Z,47.6
2022-11-29T11:09:10.280Z,47.6
2022-11-29T11:10:12.279Z,47.3
2022-11-29T11:11:14.206Z,47.1
2022-11-29T11:12:15.440Z,47.5
2022-11-29T11:13:17.319Z,47.7
2022-11-29T11:14:20.039Z,47.7
2022-11-29T11:15:22.201Z,47.6
2022-11-29T11:16:23.542Z,47.5
2022-11-29T11:17:25.479Z,46.8
2022-11-29T11:18:27.919Z,47.1
2022-11-29T11:19:29.323Z,47.1
2022-11-29T11:20:31.987Z,46.8
2022-11-29T11:21:33.865Z,46.3
2022-11-29T11:22:36.419Z,46.3
2022-11-29T11:23:42.474Z,46.5
2022-11-29T11:24:40.539Z,46.3
2022-11-29T11:25:42.199Z,46.2
2022-11-29T11:26:43.220Z,46
2022-11-29T11:27:44.263Z,46.2
2022-11-29T11:28:45.342Z,46.4
2022-11-29T11:29:48.658Z,46.5
2022-11-29T11:30:50.860Z,46.4
2022-11-29T11:31:52.479Z,46.1
2022-11-29T11:32:54.241Z,46.3
2022-11-29T11:33:55.299Z,46.2
2022-11-29T11:34:57.331Z,45.9
2022-11-29T11:35:59.190Z,45.8
2022-11-29T11:37:00.768Z,45.6
2022-11-29T11:38:02.279Z,45.3
2022-11-29T11:39:03.359Z,45.4
2022-11-29T11:40:05.417Z,45.1
2022-11-29T11:41:07.446Z,45.3
2022-11-29T11:42:09.300Z,45.1
2022-11-29T11:43:11.317Z,45.2
2022-11-29T11:44:15.180Z,45
2022-11-29T11:45:15.288Z,44.9
2022-11-29T11:46:18.059Z,45.2
2022-11-29T11:47:18.579Z,45.6
2022-11-29T11:48:20.397Z,45.8
2022-11-29T11:49:22.820Z,45.7
2022-11-29T11:50:24.219Z,45.4
2022-11-29T11:51:25.426Z,45.5
2022-11-29T11:52:27.415Z,45.4
2022-11-29T11:53:29.261Z,45.3
2022-11-29T11:54:30.485Z,45.7
2022-11-29T11:55:32.381Z,45.9
2022-11-29T11:56:34.421Z,45.9
2022-11-29T11:57:36.522Z,46.1
2022-11-29T11:58:38.242Z,46.7
2022-11-29T11:59:39.280Z,46.9
2022-11-29T12:01:02.734Z,47.1
2022-11-29T12:01:42.341Z,47.1
2022-11-29T12:02:44.447Z,47.1
2022-11-29T12:03:46.349Z,47.1
2022-11-29T12:04:48.340Z,46.8
2022-11-29T12:05:50.440Z,46.6
2022-11-29T12:06:52.720Z,45.7
2022-11-29T12:08:10.008Z,45.6
2022-11-29T12:08:56.240Z,45.9
2022-11-29T12:09:57.419Z,46.4
2022-11-29T12:11:02.766Z,46.6
2022-11-29T12:12:01.260Z,46.3
2022-11-29T12:13:02.459Z,46.1
2022-11-29T12:14:04.303Z,46.2
2022-11-29T12:15:05.261Z,45.6
2022-11-29T12:16:06.341Z,45.5
2022-11-29T12:17:07.324Z,45.9
2022-11-29T12:18:09.260Z,45.6
2022-11-29T12:19:10.239Z,45.2
2022-11-29T12:20:11.283Z,44.8
2022-11-29T12:21:12.280Z,45
2022-11-29T12:22:13.241Z,45.2
2022-11-29T12:23:14.846Z,45.1
2022-11-29T12:24:16.319Z,45
2022-11-29T12:25:18.779Z,45.5
2022-11-29T12:26:48.797Z,46
2022-11-29T12:27:22.282Z,46.3
2022-11-29T12:28:23.300Z,46.7
2022-11-29T12:29:24.280Z,46.7
2022-11-29T12:30:25.828Z,46.6
2022-11-29T12:31:27.400Z,46.2
2022-11-29T12:32:29.362Z,45.8
2022-11-29T12:33:31.399Z,46.4
2022-11-29T12:34:33.660Z,46.9
2022-11-29T12:35:35.881Z,46.9
2022-11-29T12:36:37.441Z,46.7
2022-11-29T12:37:39.360Z,46.9
2022-11-29T12:38:41.570Z,46.9
2022-11-29T12:39:43.287Z,46.6
2022-11-29T12:40:44.350Z,46.2
2022-11-29T12:41:50.992Z,45.8
2022-11-29T12:42:48.481Z,45.7
2022-11-29T12:43:50.499Z,46
2022-11-29T12:44:52.419Z,46.2
2022-11-29T12:45:54.260Z,46.3
2022-11-29T12:47:07.267Z,46.2
2022-11-29T12:47:57.341Z,46.3
2022-11-29T12:48:59.329Z,46.3
2022-11-29T12:50:01.435Z,46.5
2022-11-29T12:51:03.368Z,46.9
2022-11-29T12:52:05.443Z,47.3
2022-11-29T12:53:07.419Z,47.6
2022-11-29T12:54:09.447Z,47
2022-11-29T12:55:11.721Z,46.5
2022-11-29T12:56:13.324Z,46.1
2022-11-29T12:57:14.181Z,45.9
2022-11-29T12:58:15.282Z,45.8
2022-11-29T12:59:16.300Z,45.9
2022-11-29T13:00:17.740Z,45.9
2022-11-29T13:01:19.425Z,45.8
2022-11-29T13:02:21.362Z,45.4
2022-11-29T13:03:22.301Z,45.7
2022-11-29T13:04:23.426Z,45.8
2022-11-29T13:05:25.260Z,46.2
2022-11-29T13:06:26.700Z,46.4
2022-11-29T13:07:28.394Z,46.4
2022-11-29T13:08:30.296Z,46.8
2022-11-29T13:09:31.369Z,47.4
2022-11-29T13:10:33.522Z,47.6
2022-11-29T13:11:35.480Z,47.6
2022-11-29T13:12:37.434Z,48
2022-11-29T13:13:39.661Z,47.9
2022-11-29T13:14:43.276Z,47.4
2022-11-29T13:15:43.537Z,47.8
2022-11-29T13:16:45.320Z,47.8
2022-11-29T13:17:46.401Z,47.2
2022-11-29T13:18:48.620Z,47
2022-11-29T13:19:50.320Z,46.8
2022-11-29T13:20:51.404Z,46.6
2022-11-29T13:21:53.481Z,46.4
2022-11-29T13:22:55.662Z,46.1
2022-11-29T13:24:08.163Z,46
2022-11-29T13:24:59.368Z,45.8
2022-11-29T13:26:00.238Z,45.7
2022-11-29T13:27:01.340Z,45.9
2022-11-29T13:28:03.161Z,45.7
2022-11-29T13:29:04.340Z,45
2022-11-29T13:30:05.341Z,44.8
2022-11-29T13:31:07.456Z,44.6
2022-11-29T13:32:14.356Z,44.6
2022-11-29T13:33:11.723Z,44.7
2022-11-29T13:34:13.600Z,44.4
2022-11-29T13:35:15.342Z,44.4
2022-11-29T13:36:16.368Z,44.4
2022-11-29T13:37:18.400Z,44.4
2022-11-29T13:38:20.360Z,44.4
2022-11-29T13:39:22.340Z,44
2022-11-29T13:40:23.374Z,43.8
2022-11-29T13:41:25.820Z,43.2
2022-11-29T13:42:27.508Z,43.5
2022-11-29T13:43:30.695Z,43.5
2022-11-29T13:44:31.321Z,43.7
2022-11-29T13:45:32.337Z,43.8
2022-11-29T13:46:34.418Z,43.9
2022-11-29T13:47:35.423Z,44.3
2022-11-29T13:48:37.480Z,44